Milwaukee, Wisconsin
Traffic Map
Current Weather Conditions
Milwaukee, Wisconsin
Scattered Clouds
Scattered Clouds
71°
Feels Like: 71°
Wind Chill: 71° Ceiling: Unl
Heat Index: 71° Visibility: 10mi
Dew Point: 61° Wind: 0mph
Humidity: 70% Direction: ° ()
Pressure: 29.89in Gusts: 0mph
Raw Report DataKMKE 280652Z 00000KT 10SM SCT250 22/16 A2989 RMK AO2 SLP114 T02170161 $
Traffic Incident Summary
Active as of:
Severity:
Category:
InformationThere was an issue retrieving the traffic information for this location. Please try a different location or try again shortly.
Advertisements